sensor_id;sensor_type;location;lat;lon;timestamp;P1;durP1;ratioP1;P2;durP2;ratioP2
920;SDS011;447;51.332;6.778;2024-03-22T00:02:18;16.63;;;11.00;;
920;SDS011;447;51.332;6.778;2024-03-22T00:04:46;15.07;;;11.37;;
920;SDS011;447;51.332;6.778;2024-03-22T00:07:12;16.40;;;11.93;;
920;SDS011;447;51.332;6.778;2024-03-22T00:09:43;16.93;;;12.20;;
920;SDS011;447;51.332;6.778;2024-03-22T00:12:10;14.33;;;10.90;;
920;SDS011;447;51.332;6.778;2024-03-22T00:14:38;20.23;;;11.43;;
920;SDS011;447;51.332;6.778;2024-03-22T00:17:04;13.80;;;11.80;;
920;SDS011;447;51.332;6.778;2024-03-22T00:19:30;14.00;;;10.93;;
920;SDS011;447;51.332;6.778;2024-03-22T00:21:59;14.20;;;11.10;;
920;SDS011;447;51.332;6.778;2024-03-22T00:24:27;13.97;;;11.20;;
920;SDS011;447;51.332;6.778;2024-03-22T00:27:01;13.47;;;11.03;;
920;SDS011;447;51.332;6.778;2024-03-22T00:29:29;14.20;;;11.43;;
920;SDS011;447;51.332;6.778;2024-03-22T00:31:57;16.00;;;11.80;;
920;SDS011;447;51.332;6.778;2024-03-22T00:34:23;15.67;;;10.70;;
920;SDS011;447;51.332;6.778;2024-03-22T00:36:49;13.80;;;11.70;;
920;SDS011;447;51.332;6.778;2024-03-22T00:39:16;15.07;;;10.83;;
920;SDS011;447;51.332;6.778;2024-03-22T00:41:42;17.37;;;11.93;;
920;SDS011;447;51.332;6.778;2024-03-22T00:44:08;16.57;;;13.23;;
920;SDS011;447;51.332;6.778;2024-03-22T00:46:34;14.83;;;11.03;;
920;SDS011;447;51.332;6.778;2024-03-22T00:49:03;15.87;;;10.80;;
920;SDS011;447;51.332;6.778;2024-03-22T00:51:29;14.97;;;11.20;;
920;SDS011;447;51.332;6.778;2024-03-22T00:53:55;14.13;;;11.00;;
920;SDS011;447;51.332;6.778;2024-03-22T00:56:22;14.53;;;10.80;;
920;SDS011;447;51.332;6.778;2024-03-22T00:58:48;15.77;;;11.30;;
920;SDS011;447;51.332;6.778;2024-03-22T01:01:23;16.47;;;12.50;;
920;SDS011;447;51.332;6.778;2024-03-22T01:03:49;19.90;;;12.23;;
920;SDS011;447;51.332;6.778;2024-03-22T01:06:17;17.53;;;11.37;;
920;SDS011;447;51.332;6.778;2024-03-22T01:08:49;15.80;;;11.90;;
920;SDS011;447;51.332;6.778;2024-03-22T01:11:17;16.93;;;12.70;;
920;SDS011;447;51.332;6.778;2024-03-22T01:13:46;13.97;;;11.10;;
920;SDS011;447;51.332;6.778;2024-03-22T01:16:15;16.43;;;11.47;;
920;SDS011;447;51.332;6.778;2024-03-22T01:18:42;14.53;;;10.70;;
920;SDS011;447;51.332;6.778;2024-03-22T01:21:08;17.50;;;12.23;;
920;SDS011;447;51.332;6.778;2024-03-22T01:23:41;19.97;;;11.33;;
920;SDS011;447;51.332;6.778;2024-03-22T01:26:07;15.80;;;10.80;;
920;SDS011;447;51.332;6.778;2024-03-22T01:28:33;18.00;;;11.90;;
920;SDS011;447;51.332;6.778;2024-03-22T01:30:59;18.40;;;12.33;;
920;SDS011;447;51.332;6.778;2024-03-22T01:33:25;19.80;;;12.60;;
920;SDS011;447;51.332;6.778;2024-03-22T01:35:51;18.00;;;11.60;;
920;SDS011;447;51.332;6.778;2024-03-22T01:38:21;18.27;;;12.67;;
920;SDS011;447;51.332;6.778;2024-03-22T01:40:47;17.30;;;12.03;;
920;SDS011;447;51.332;6.778;2024-03-22T01:43:15;16.63;;;11.80;;
920;SDS011;447;51.332;6.778;2024-03-22T01:45:44;19.10;;;11.50;;
920;SDS011;447;51.332;6.778;2024-03-22T01:48:10;16.87;;;11.90;;
920;SDS011;447;51.332;6.778;2024-03-22T01:50:38;17.60;;;12.30;;
920;SDS011;447;51.332;6.778;2024-03-22T01:53:07;16.60;;;11.40;;
920;SDS011;447;51.332;6.778;2024-03-22T01:55:41;18.03;;;12.23;;
920;SDS011;447;51.332;6.778;2024-03-22T01:58:07;15.80;;;12.03;;
920;SDS011;447;51.332;6.778;2024-03-22T02:00:36;20.37;;;11.57;;
920;SDS011;447;51.332;6.778;2024-03-22T02:03:07;17.30;;;12.67;;
920;SDS011;447;51.332;6.778;2024-03-22T02:05:33;17.07;;;11.93;;
920;SDS011;447;51.332;6.778;2024-03-22T02:08:03;21.00;;;12.83;;
920;SDS011;447;51.332;6.778;2024-03-22T02:10:30;19.07;;;12.00;;
920;SDS011;447;51.332;6.778;2024-03-22T02:13:01;17.83;;;11.93;;
920;SDS011;447;51.332;6.778;2024-03-22T02:15:30;19.10;;;11.73;;
920;SDS011;447;51.332;6.778;2024-03-22T02:17:58;17.60;;;12.10;;
920;SDS011;447;51.332;6.778;2024-03-22T02:20:27;19.03;;;12.50;;
920;SDS011;447;51.332;6.778;2024-03-22T02:22:53;20.37;;;12.50;;
920;SDS011;447;51.332;6.778;2024-03-22T02:25:21;15.97;;;11.00;;
920;SDS011;447;51.332;6.778;2024-03-22T02:27:47;15.40;;;11.33;;
920;SDS011;447;51.332;6.778;2024-03-22T02:30:16;16.47;;;11.03;;
920;SDS011;447;51.332;6.778;2024-03-22T02:32:42;17.80;;;11.30;;
920;SDS011;447;51.332;6.778;2024-03-22T02:35:11;18.90;;;12.50;;
920;SDS011;447;51.332;6.778;2024-03-22T02:37:37;18.30;;;11.97;;
920;SDS011;447;51.332;6.778;2024-03-22T02:40:03;17.90;;;11.43;;
920;SDS011;447;51.332;6.778;2024-03-22T02:42:30;18.00;;;11.60;;
920;SDS011;447;51.332;6.778;2024-03-22T02:44:56;17.00;;;11.10;;
920;SDS011;447;51.332;6.778;2024-03-22T02:47:22;16.87;;;11.47;;
920;SDS011;447;51.332;6.778;2024-03-22T02:49:48;21.27;;;13.07;;
920;SDS011;447;51.332;6.778;2024-03-22T02:52:16;16.93;;;11.10;;
920;SDS011;447;51.332;6.778;2024-03-22T02:54:42;17.83;;;11.37;;
920;SDS011;447;51.332;6.778;2024-03-22T02:57:12;18.37;;;11.03;;
920;SDS011;447;51.332;6.778;2024-03-22T02:59:37;19.03;;;11.50;;
920;SDS011;447;51.332;6.778;2024-03-22T03:02:05;16.63;;;11.10;;
920;SDS011;447;51.332;6.778;2024-03-22T03:04:33;19.00;;;11.37;;
920;SDS011;447;51.332;6.778;2024-03-22T03:06:59;14.67;;;10.93;;
920;SDS011;447;51.332;6.778;2024-03-22T03:09:27;15.77;;;10.90;;
920;SDS011;447;51.332;6.778;2024-03-22T03:11:56;21.00;;;13.50;;
920;SDS011;447;51.332;6.778;2024-03-22T03:14:22;16.97;;;10.50;;
920;SDS011;447;51.332;6.778;2024-03-22T03:16:48;17.67;;;11.90;;
920;SDS011;447;51.332;6.778;2024-03-22T03:19:14;18.70;;;11.43;;
920;SDS011;447;51.332;6.778;2024-03-22T03:21:40;17.40;;;10.73;;
920;SDS011;447;51.332;6.778;2024-03-22T03:24:06;17.03;;;11.00;;
920;SDS011;447;51.332;6.778;2024-03-22T03:26:34;16.10;;;10.87;;
920;SDS011;447;51.332;6.778;2024-03-22T03:29:00;18.47;;;11.10;;
920;SDS011;447;51.332;6.778;2024-03-22T03:31:26;15.77;;;10.50;;
920;SDS011;447;51.332;6.778;2024-03-22T03:33:54;20.63;;;9.77;;
920;SDS011;447;51.332;6.778;2024-03-22T03:36:21;17.23;;;10.30;;
920;SDS011;447;51.332;6.778;2024-03-22T03:38:47;12.63;;;9.27;;
920;SDS011;447;51.332;6.778;2024-03-22T03:41:16;15.73;;;9.70;;
920;SDS011;447;51.332;6.778;2024-03-22T03:43:42;17.03;;;10.90;;
920;SDS011;447;51.332;6.778;2024-03-22T03:46:08;17.27;;;11.33;;
920;SDS011;447;51.332;6.778;2024-03-22T03:48:33;18.60;;;10.30;;
920;SDS011;447;51.332;6.778;2024-03-22T03:51:00;19.20;;;11.33;;
920;SDS011;447;51.332;6.778;2024-03-22T03:53:30;15.73;;;9.87;;
920;SDS011;447;51.332;6.778;2024-03-22T03:55:56;15.80;;;10.80;;
920;SDS011;447;51.332;6.778;2024-03-22T03:58:22;17.07;;;10.67;;
920;SDS011;447;51.332;6.778;2024-03-22T04:00:50;17.23;;;10.27;;
920;SDS011;447;51.332;6.778;2024-03-22T04:03:16;14.83;;;11.13;;
920;SDS011;447;51.332;6.778;2024-03-22T04:05:55;13.73;;;10.10;;
920;SDS011;447;51.332;6.778;2024-03-22T04:08:27;15.27;;;9.80;;
920;SDS011;447;51.332;6.778;2024-03-22T04:10:54;16.67;;;10.13;;
920;SDS011;447;51.332;6.778;2024-03-22T04:13:22;16.93;;;10.53;;
920;SDS011;447;51.332;6.778;2024-03-22T04:15:52;15.00;;;9.57;;
920;SDS011;447;51.332;6.778;2024-03-22T04:18:23;15.07;;;9.73;;
920;SDS011;447;51.332;6.778;2024-03-22T04:20:55;14.20;;;10.23;;
920;SDS011;447;51.332;6.778;2024-03-22T04:23:22;13.53;;;9.60;;
920;SDS011;447;51.332;6.778;2024-03-22T04:25:53;15.37;;;10.13;;
920;SDS011;447;51.332;6.778;2024-03-22T04:28:22;15.17;;;9.20;;
920;SDS011;447;51.332;6.778;2024-03-22T04:31:00;13.20;;;9.30;;
920;SDS011;447;51.332;6.778;2024-03-22T04:33:28;16.07;;;10.40;;
920;SDS011;447;51.332;6.778;2024-03-22T04:35:57;15.60;;;10.20;;
920;SDS011;447;51.332;6.778;2024-03-22T04:38:24;13.57;;;9.60;;
920;SDS011;447;51.332;6.778;2024-03-22T04:40:51;13.70;;;9.50;;
920;SDS011;447;51.332;6.778;2024-03-22T04:43:20;16.93;;;10.23;;
920;SDS011;447;51.332;6.778;2024-03-22T04:45:49;14.03;;;9.03;;
920;SDS011;447;51.332;6.778;2024-03-22T04:48:19;12.50;;;9.10;;
920;SDS011;447;51.332;6.778;2024-03-22T04:50:47;14.93;;;10.00;;
920;SDS011;447;51.332;6.778;2024-03-22T04:53:15;12.40;;;9.50;;
920;SDS011;447;51.332;6.778;2024-03-22T04:55:45;13.93;;;9.13;;
920;SDS011;447;51.332;6.778;2024-03-22T04:58:13;13.33;;;9.07;;
920;SDS011;447;51.332;6.778;2024-03-22T05:00:46;14.60;;;9.33;;
920;SDS011;447;51.332;6.778;2024-03-22T05:03:16;16.37;;;9.97;;
920;SDS011;447;51.332;6.778;2024-03-22T05:05:42;14.93;;;8.97;;
920;SDS011;447;51.332;6.778;2024-03-22T05:08:09;14.00;;;8.60;;
920;SDS011;447;51.332;6.778;2024-03-22T05:10:35;11.80;;;8.30;;
920;SDS011;447;51.332;6.778;2024-03-22T05:13:01;11.63;;;8.40;;
920;SDS011;447;51.332;6.778;2024-03-22T05:15:27;12.93;;;8.57;;
920;SDS011;447;51.332;6.778;2024-03-22T05:17:55;13.90;;;8.70;;
920;SDS011;447;51.332;6.778;2024-03-22T05:20:22;9.83;;;7.87;;
920;SDS011;447;51.332;6.778;2024-03-22T05:22:50;13.93;;;9.13;;
920;SDS011;447;51.332;6.778;2024-03-22T05:25:17;10.80;;;8.30;;
920;SDS011;447;51.332;6.778;2024-03-22T05:27:46;12.67;;;9.03;;
920;SDS011;447;51.332;6.778;2024-03-22T05:30:12;18.90;;;9.80;;
920;SDS011;447;51.332;6.778;2024-03-22T05:32:43;13.30;;;9.33;;
920;SDS011;447;51.332;6.778;2024-03-22T05:35:09;10.97;;;8.13;;
920;SDS011;447;51.332;6.778;2024-03-22T05:37:37;14.13;;;9.13;;
920;SDS011;447;51.332;6.778;2024-03-22T05:40:03;12.77;;;8.30;;
920;SDS011;447;51.332;6.778;2024-03-22T05:42:34;13.93;;;8.67;;
920;SDS011;447;51.332;6.778;2024-03-22T05:45:00;12.87;;;8.60;;
920;SDS011;447;51.332;6.778;2024-03-22T05:47:28;13.30;;;9.67;;
920;SDS011;447;51.332;6.778;2024-03-22T05:49:59;13.93;;;9.50;;
920;SDS011;447;51.332;6.778;2024-03-22T05:52:27;12.63;;;8.97;;
920;SDS011;447;51.332;6.778;2024-03-22T05:54:56;12.20;;;9.33;;
920;SDS011;447;51.332;6.778;2024-03-22T05:57:22;12.50;;;8.97;;
920;SDS011;447;51.332;6.778;2024-03-22T05:59:49;12.73;;;8.13;;
920;SDS011;447;51.332;6.778;2024-03-22T06:02:16;14.80;;;9.13;;
920;SDS011;447;51.332;6.778;2024-03-22T06:04:42;12.03;;;9.37;;
920;SDS011;447;51.332;6.778;2024-03-22T06:07:10;12.57;;;8.30;;
920;SDS011;447;51.332;6.778;2024-03-22T06:09:39;11.93;;;9.50;;
920;SDS011;447;51.332;6.778;2024-03-22T06:12:14;13.03;;;8.60;;
920;SDS011;447;51.332;6.778;2024-03-22T06:14:44;13.20;;;7.67;;
920;SDS011;447;51.332;6.778;2024-03-22T06:17:12;12.33;;;8.87;;
920;SDS011;447;51.332;6.778;2024-03-22T06:19:41;12.57;;;9.77;;
920;SDS011;447;51.332;6.778;2024-03-22T06:22:07;13.23;;;9.23;;
920;SDS011;447;51.332;6.778;2024-03-22T06:24:33;12.53;;;8.87;;
920;SDS011;447;51.332;6.778;2024-03-22T06:26:59;11.73;;;8.17;;
920;SDS011;447;51.332;6.778;2024-03-22T06:29:25;11.87;;;8.10;;
920;SDS011;447;51.332;6.778;2024-03-22T06:31:51;11.83;;;8.60;;
920;SDS011;447;51.332;6.778;2024-03-22T06:34:18;15.20;;;10.47;;
920;SDS011;447;51.332;6.778;2024-03-22T06:36:44;12.23;;;9.40;;
920;SDS011;447;51.332;6.778;2024-03-22T06:39:12;13.17;;;8.67;;
920;SDS011;447;51.332;6.778;2024-03-22T06:41:41;12.73;;;9.50;;
920;SDS011;447;51.332;6.778;2024-03-22T06:44:10;14.33;;;9.40;;
920;SDS011;447;51.332;6.778;2024-03-22T06:46:39;13.80;;;9.10;;
920;SDS011;447;51.332;6.778;2024-03-22T06:49:07;14.63;;;10.20;;
920;SDS011;447;51.332;6.778;2024-03-22T06:51:38;12.73;;;9.13;;
920;SDS011;447;51.332;6.778;2024-03-22T06:54:04;11.03;;;8.70;;
920;SDS011;447;51.332;6.778;2024-03-22T06:56:32;15.80;;;9.90;;
920;SDS011;447;51.332;6.778;2024-03-22T06:59:00;15.73;;;10.27;;
920;SDS011;447;51.332;6.778;2024-03-22T07:01:29;13.80;;;10.83;;
920;SDS011;447;51.332;6.778;2024-03-22T07:03:57;15.87;;;9.20;;
920;SDS011;447;51.332;6.778;2024-03-22T07:06:23;13.23;;;8.73;;
920;SDS011;447;51.332;6.778;2024-03-22T07:08:52;14.57;;;11.10;;
920;SDS011;447;51.332;6.778;2024-03-22T07:11:19;13.40;;;10.10;;
920;SDS011;447;51.332;6.778;2024-03-22T07:13:47;16.70;;;11.47;;
920;SDS011;447;51.332;6.778;2024-03-22T07:16:15;16.70;;;11.30;;
920;SDS011;447;51.332;6.778;2024-03-22T07:18:42;14.33;;;8.90;;
920;SDS011;447;51.332;6.778;2024-03-22T07:21:07;13.43;;;10.30;;
920;SDS011;447;51.332;6.778;2024-03-22T07:23:34;15.80;;;9.70;;
920;SDS011;447;51.332;6.778;2024-03-22T07:26:00;15.70;;;11.40;;
920;SDS011;447;51.332;6.778;2024-03-22T07:28:26;12.97;;;10.00;;
920;SDS011;447;51.332;6.778;2024-03-22T07:30:52;19.00;;;11.20;;
920;SDS011;447;51.332;6.778;2024-03-22T07:33:25;11.10;;;9.27;;
920;SDS011;447;51.332;6.778;2024-03-22T07:36:00;17.27;;;10.60;;
920;SDS011;447;51.332;6.778;2024-03-22T07:38:32;16.03;;;10.13;;
920;SDS011;447;51.332;6.778;2024-03-22T07:40:58;15.40;;;10.80;;
920;SDS011;447;51.332;6.778;2024-03-22T07:43:24;16.47;;;11.00;;
920;SDS011;447;51.332;6.778;2024-03-22T07:45:51;15.03;;;10.70;;
920;SDS011;447;51.332;6.778;2024-03-22T07:48:21;16.57;;;11.03;;
920;SDS011;447;51.332;6.778;2024-03-22T07:50:55;14.87;;;10.90;;
920;SDS011;447;51.332;6.778;2024-03-22T07:53:22;15.70;;;11.03;;
920;SDS011;447;51.332;6.778;2024-03-22T07:55:51;17.10;;;12.67;;
920;SDS011;447;51.332;6.778;2024-03-22T07:58:22;15.73;;;11.57;;
920;SDS011;447;51.332;6.778;2024-03-22T08:00:51;15.23;;;10.90;;
920;SDS011;447;51.332;6.778;2024-03-22T08:03:19;15.90;;;11.67;;
920;SDS011;447;51.332;6.778;2024-03-22T08:05:45;18.70;;;12.27;;
920;SDS011;447;51.332;6.778;2024-03-22T08:08:17;17.07;;;12.60;;
920;SDS011;447;51.332;6.778;2024-03-22T08:10:46;15.77;;;11.97;;
920;SDS011;447;51.332;6.778;2024-03-22T08:13:16;18.50;;;12.57;;
920;SDS011;447;51.332;6.778;2024-03-22T08:15:42;16.83;;;12.50;;
920;SDS011;447;51.332;6.778;2024-03-22T08:18:11;16.03;;;12.70;;
920;SDS011;447;51.332;6.778;2024-03-22T08:20:40;22.23;;;13.27;;
920;SDS011;447;51.332;6.778;2024-03-22T08:26:49;16.63;;;12.93;;
920;SDS011;447;51.332;6.778;2024-03-22T08:29:20;17.47;;;12.87;;
920;SDS011;447;51.332;6.778;2024-03-22T08:31:46;21.27;;;13.60;;
920;SDS011;447;51.332;6.778;2024-03-22T08:34:12;15.27;;;11.90;;
920;SDS011;447;51.332;6.778;2024-03-22T08:36:39;21.83;;;14.37;;
920;SDS011;447;51.332;6.778;2024-03-22T08:39:05;19.73;;;13.17;;
920;SDS011;447;51.332;6.778;2024-03-22T08:41:32;19.13;;;11.90;;
920;SDS011;447;51.332;6.778;2024-03-22T08:43:58;17.53;;;13.17;;
920;SDS011;447;51.332;6.778;2024-03-22T08:50:07;15.20;;;12.10;;
920;SDS011;447;51.332;6.778;2024-03-22T08:52:41;17.70;;;12.40;;
920;SDS011;447;51.332;6.778;2024-03-22T08:55:13;17.43;;;12.23;;
920;SDS011;447;51.332;6.778;2024-03-22T08:57:39;14.97;;;12.27;;
920;SDS011;447;51.332;6.778;2024-03-22T09:00:07;17.53;;;11.70;;
920;SDS011;447;51.332;6.778;2024-03-22T09:02:35;14.20;;;11.13;;
920;SDS011;447;51.332;6.778;2024-03-22T09:05:03;16.23;;;12.30;;
920;SDS011;447;51.332;6.778;2024-03-22T09:07:37;16.53;;;11.60;;
920;SDS011;447;51.332;6.778;2024-03-22T09:10:03;14.00;;;11.30;;
920;SDS011;447;51.332;6.778;2024-03-22T09:12:38;15.97;;;11.93;;
920;SDS011;447;51.332;6.778;2024-03-22T09:15:04;16.30;;;10.20;;
920;SDS011;447;51.332;6.778;2024-03-22T09:17:34;20.00;;;11.70;;
920;SDS011;447;51.332;6.778;2024-03-22T09:20:01;14.57;;;10.17;;
920;SDS011;447;51.332;6.778;2024-03-22T09:22:29;15.63;;;11.47;;
920;SDS011;447;51.332;6.778;2024-03-22T09:24:59;14.00;;;11.13;;
920;SDS011;447;51.332;6.778;2024-03-22T09:27:28;17.50;;;11.07;;
920;SDS011;447;51.332;6.778;2024-03-22T09:29:57;17.90;;;11.50;;
920;SDS011;447;51.332;6.778;2024-03-22T09:32:23;14.40;;;10.17;;
920;SDS011;447;51.332;6.778;2024-03-22T09:34:54;13.60;;;9.83;;
920;SDS011;447;51.332;6.778;2024-03-22T09:37:20;15.13;;;10.70;;
920;SDS011;447;51.332;6.778;2024-03-22T09:39:51;18.30;;;11.17;;
920;SDS011;447;51.332;6.778;2024-03-22T09:42:22;14.73;;;10.03;;
920;SDS011;447;51.332;6.778;2024-03-22T09:44:50;14.83;;;10.67;;
920;SDS011;447;51.332;6.778;2024-03-22T09:47:18;12.20;;;9.33;;
920;SDS011;447;51.332;6.778;2024-03-22T09:49:49;15.43;;;10.23;;
920;SDS011;447;51.332;6.778;2024-03-22T09:52:15;12.27;;;10.23;;
920;SDS011;447;51.332;6.778;2024-03-22T09:54:47;15.50;;;10.50;;
920;SDS011;447;51.332;6.778;2024-03-22T09:57:19;12.33;;;10.20;;
920;SDS011;447;51.332;6.778;2024-03-22T10:02:54;16.73;;;10.50;;
920;SDS011;447;51.332;6.778;2024-03-22T10:05:25;13.67;;;10.33;;
920;SDS011;447;51.332;6.778;2024-03-22T10:07:54;13.23;;;10.30;;
920;SDS011;447;51.332;6.778;2024-03-22T10:10:26;14.17;;;9.90;;
920;SDS011;447;51.332;6.778;2024-03-22T10:12:53;13.23;;;10.23;;
920;SDS011;447;51.332;6.778;2024-03-22T10:15:23;11.87;;;8.93;;
920;SDS011;447;51.332;6.778;2024-03-22T10:17:51;14.40;;;9.87;;
920;SDS011;447;51.332;6.778;2024-03-22T10:20:21;16.30;;;9.20;;
920;SDS011;447;51.332;6.778;2024-03-22T10:22:48;11.67;;;9.37;;
920;SDS011;447;51.332;6.778;2024-03-22T10:25:25;13.13;;;9.13;;
920;SDS011;447;51.332;6.778;2024-03-22T10:27:57;13.97;;;9.47;;
920;SDS011;447;51.332;6.778;2024-03-22T10:30:25;13.10;;;8.63;;
920;SDS011;447;51.332;6.778;2024-03-22T10:32:52;12.17;;;8.33;;
920;SDS011;447;51.332;6.778;2024-03-22T10:35:22;9.60;;;7.90;;
920;SDS011;447;51.332;6.778;2024-03-22T10:37:50;12.77;;;8.83;;
920;SDS011;447;51.332;6.778;2024-03-22T10:40:21;10.47;;;8.30;;
920;SDS011;447;51.332;6.778;2024-03-22T10:42:50;9.70;;;7.50;;
920;SDS011;447;51.332;6.778;2024-03-22T10:45:16;11.13;;;8.07;;
920;SDS011;447;51.332;6.778;2024-03-22T10:47:43;11.00;;;8.10;;
920;SDS011;447;51.332;6.778;2024-03-22T10:50:13;11.50;;;8.60;;
920;SDS011;447;51.332;6.778;2024-03-22T10:52:48;13.93;;;8.30;;
920;SDS011;447;51.332;6.778;2024-03-22T10:55:30;11.57;;;7.87;;
920;SDS011;447;51.332;6.778;2024-03-22T10:57:59;13.27;;;7.90;;
920;SDS011;447;51.332;6.778;2024-03-22T11:00:28;9.23;;;7.67;;
920;SDS011;447;51.332;6.778;2024-03-22T11:02:55;11.57;;;7.40;;
920;SDS011;447;51.332;6.778;2024-03-22T11:05:22;12.73;;;7.40;;
920;SDS011;447;51.332;6.778;2024-03-22T11:07:58;9.03;;;6.77;;
920;SDS011;447;51.332;6.778;2024-03-22T11:10:30;9.40;;;6.27;;
920;SDS011;447;51.332;6.778;2024-03-22T11:13:01;14.23;;;8.27;;
920;SDS011;447;51.332;6.778;2024-03-22T11:15:32;8.27;;;7.00;;
920;SDS011;447;51.332;6.778;2024-03-22T11:17:59;9.30;;;6.10;;
920;SDS011;447;51.332;6.778;2024-03-22T11:20:26;10.80;;;7.43;;
920;SDS011;447;51.332;6.778;2024-03-22T11:22:53;10.90;;;7.50;;
920;SDS011;447;51.332;6.778;2024-03-22T11:25:19;9.80;;;6.70;;
920;SDS011;447;51.332;6.778;2024-03-22T11:27:48;11.23;;;6.87;;
920;SDS011;447;51.332;6.778;2024-03-22T11:30:15;9.03;;;7.30;;
920;SDS011;447;51.332;6.778;2024-03-22T11:32:44;10.67;;;7.57;;
920;SDS011;447;51.332;6.778;2024-03-22T11:35:13;9.50;;;8.17;;
920;SDS011;447;51.332;6.778;2024-03-22T11:37:40;12.13;;;8.43;;
920;SDS011;447;51.332;6.778;2024-03-22T11:40:08;13.37;;;8.00;;
920;SDS011;447;51.332;6.778;2024-03-22T11:42:42;11.10;;;9.20;;
920;SDS011;447;51.332;6.778;2024-03-22T11:45:17;8.20;;;7.03;;
920;SDS011;447;51.332;6.778;2024-03-22T11:47:45;9.90;;;7.40;;
920;SDS011;447;51.332;6.778;2024-03-22T11:50:19;13.03;;;7.20;;
920;SDS011;447;51.332;6.778;2024-03-22T11:52:46;12.13;;;8.53;;
920;SDS011;447;51.332;6.778;2024-03-22T11:55:13;9.27;;;7.70;;
920;SDS011;447;51.332;6.778;2024-03-22T11:57:47;10.70;;;8.10;;
920;SDS011;447;51.332;6.778;2024-03-22T12:00:14;10.30;;;7.70;;
920;SDS011;447;51.332;6.778;2024-03-22T12:02:42;12.03;;;8.00;;
920;SDS011;447;51.332;6.778;2024-03-22T12:05:09;9.40;;;7.20;;
920;SDS011;447;51.332;6.778;2024-03-22T12:07:36;10.30;;;7.20;;
920;SDS011;447;51.332;6.778;2024-03-22T12:10:03;10.60;;;8.23;;
920;SDS011;447;51.332;6.778;2024-03-22T12:12:30;9.60;;;8.10;;
920;SDS011;447;51.332;6.778;2024-03-22T12:14:56;11.33;;;7.57;;
920;SDS011;447;51.332;6.778;2024-03-22T12:17:22;11.97;;;8.30;;
920;SDS011;447;51.332;6.778;2024-03-22T12:19:48;12.47;;;7.23;;
920;SDS011;447;51.332;6.778;2024-03-22T12:22:14;8.73;;;7.27;;
920;SDS011;447;51.332;6.778;2024-03-22T12:24:42;11.27;;;7.30;;
920;SDS011;447;51.332;6.778;2024-03-22T12:27:11;8.50;;;6.50;;
920;SDS011;447;51.332;6.778;2024-03-22T12:29:37;9.07;;;6.63;;
920;SDS011;447;51.332;6.778;2024-03-22T12:32:08;8.53;;;6.33;;
920;SDS011;447;51.332;6.778;2024-03-22T12:34:35;9.47;;;6.30;;
920;SDS011;447;51.332;6.778;2024-03-22T12:37:01;10.37;;;7.70;;
920;SDS011;447;51.332;6.778;2024-03-22T12:39:28;11.60;;;7.90;;
920;SDS011;447;51.332;6.778;2024-03-22T12:41:54;8.07;;;6.67;;
920;SDS011;447;51.332;6.778;2024-03-22T12:44:21;9.83;;;7.67;;
920;SDS011;447;51.332;6.778;2024-03-22T12:46:49;10.27;;;7.17;;
920;SDS011;447;51.332;6.778;2024-03-22T12:49:19;11.00;;;7.50;;
920;SDS011;447;51.332;6.778;2024-03-22T12:51:47;11.50;;;7.97;;
920;SDS011;447;51.332;6.778;2024-03-22T12:54:14;7.40;;;6.30;;
920;SDS011;447;51.332;6.778;2024-03-22T12:56:40;9.60;;;7.33;;
920;SDS011;447;51.332;6.778;2024-03-22T12:59:06;9.73;;;7.57;;
920;SDS011;447;51.332;6.778;2024-03-22T13:01:37;10.87;;;7.70;;
920;SDS011;447;51.332;6.778;2024-03-22T13:04:04;13.80;;;8.33;;
920;SDS011;447;51.332;6.778;2024-03-22T13:06:32;8.77;;;7.13;;
920;SDS011;447;51.332;6.778;2024-03-22T13:09:01;10.60;;;8.07;;
920;SDS011;447;51.332;6.778;2024-03-22T13:11:33;9.43;;;7.20;;
920;SDS011;447;51.332;6.778;2024-03-22T13:13:59;9.30;;;7.93;;
920;SDS011;447;51.332;6.778;2024-03-22T13:16:26;10.50;;;8.20;;
920;SDS011;447;51.332;6.778;2024-03-22T13:18:53;9.60;;;7.90;;
920;SDS011;447;51.332;6.778;2024-03-22T13:21:19;10.20;;;8.33;;
920;SDS011;447;51.332;6.778;2024-03-22T13:23:45;10.43;;;8.27;;
920;SDS011;447;51.332;6.778;2024-03-22T13:26:11;8.80;;;7.90;;
920;SDS011;447;51.332;6.778;2024-03-22T13:28:39;9.53;;;7.30;;
920;SDS011;447;51.332;6.778;2024-03-22T13:31:07;10.23;;;8.73;;
920;SDS011;447;51.332;6.778;2024-03-22T13:33:34;12.93;;;8.93;;
920;SDS011;447;51.332;6.778;2024-03-22T13:36:02;14.53;;;10.50;;
920;SDS011;447;51.332;6.778;2024-03-22T13:38:30;19.00;;;9.30;;
920;SDS011;447;51.332;6.778;2024-03-22T13:40:56;13.80;;;10.10;;
920;SDS011;447;51.332;6.778;2024-03-22T13:43:26;11.13;;;9.40;;
920;SDS011;447;51.332;6.778;2024-03-22T13:45:53;14.23;;;10.60;;
920;SDS011;447;51.332;6.778;2024-03-22T13:48:22;10.57;;;9.20;;
920;SDS011;447;51.332;6.778;2024-03-22T13:50:53;12.60;;;9.00;;
920;SDS011;447;51.332;6.778;2024-03-22T13:53:20;10.67;;;8.20;;
920;SDS011;447;51.332;6.778;2024-03-22T13:55:49;13.60;;;9.80;;
920;SDS011;447;51.332;6.778;2024-03-22T13:58:20;11.63;;;8.97;;
920;SDS011;447;51.332;6.778;2024-03-22T14:00:49;13.07;;;8.70;;
920;SDS011;447;51.332;6.778;2024-03-22T14:03:17;15.00;;;11.00;;
920;SDS011;447;51.332;6.778;2024-03-22T14:05:45;12.23;;;9.50;;
920;SDS011;447;51.332;6.778;2024-03-22T14:08:11;17.33;;;8.50;;
920;SDS011;447;51.332;6.778;2024-03-22T14:10:39;23.30;;;14.00;;
920;SDS011;447;51.332;6.778;2024-03-22T14:13:05;16.97;;;11.80;;
920;SDS011;447;51.332;6.778;2024-03-22T14:15:34;13.20;;;10.87;;
920;SDS011;447;51.332;6.778;2024-03-22T14:18:02;13.70;;;10.87;;
920;SDS011;447;51.332;6.778;2024-03-22T14:20:28;13.20;;;9.70;;
920;SDS011;447;51.332;6.778;2024-03-22T14:22:54;13.67;;;11.53;;
920;SDS011;447;51.332;6.778;2024-03-22T14:25:25;12.97;;;10.30;;
920;SDS011;447;51.332;6.778;2024-03-22T14:27:57;14.00;;;11.70;;
920;SDS011;447;51.332;6.778;2024-03-22T14:30:23;11.27;;;10.00;;
920;SDS011;447;51.332;6.778;2024-03-22T14:32:53;12.30;;;10.80;;
920;SDS011;447;51.332;6.778;2024-03-22T14:35:19;11.83;;;10.30;;
920;SDS011;447;51.332;6.778;2024-03-22T14:37:47;12.07;;;10.27;;
920;SDS011;447;51.332;6.778;2024-03-22T14:40:17;12.40;;;10.20;;
920;SDS011;447;51.332;6.778;2024-03-22T14:42:44;11.20;;;10.00;;
920;SDS011;447;51.332;6.778;2024-03-22T14:45:10;13.47;;;10.73;;
920;SDS011;447;51.332;6.778;2024-03-22T14:47:36;15.97;;;11.60;;
920;SDS011;447;51.332;6.778;2024-03-22T14:50:03;14.30;;;11.10;;
920;SDS011;447;51.332;6.778;2024-03-22T14:52:30;12.90;;;11.30;;
920;SDS011;447;51.332;6.778;2024-03-22T14:54:59;14.07;;;11.27;;
920;SDS011;447;51.332;6.778;2024-03-22T14:57:30;13.43;;;11.90;;
920;SDS011;447;51.332;6.778;2024-03-22T15:00:03;14.10;;;11.43;;
920;SDS011;447;51.332;6.778;2024-03-22T15:02:35;12.10;;;10.50;;
920;SDS011;447;51.332;6.778;2024-03-22T15:05:03;13.00;;;11.07;;
920;SDS011;447;51.332;6.778;2024-03-22T15:07:30;11.57;;;10.20;;
920;SDS011;447;51.332;6.778;2024-03-22T15:09:56;12.53;;;10.50;;
920;SDS011;447;51.332;6.778;2024-03-22T15:12:24;11.67;;;10.37;;
920;SDS011;447;51.332;6.778;2024-03-22T15:14:53;12.10;;;10.57;;
920;SDS011;447;51.332;6.778;2024-03-22T15:17:21;15.97;;;11.27;;
920;SDS011;447;51.332;6.778;2024-03-22T15:19:49;15.33;;;10.70;;
920;SDS011;447;51.332;6.778;2024-03-22T15:22:18;17.40;;;11.27;;
920;SDS011;447;51.332;6.778;2024-03-22T15:24:48;13.80;;;11.10;;
920;SDS011;447;51.332;6.778;2024-03-22T15:27:14;12.80;;;10.93;;
920;SDS011;447;51.332;6.778;2024-03-22T15:29:44;12.67;;;10.80;;
920;SDS011;447;51.332;6.778;2024-03-22T15:32:10;16.50;;;11.70;;
920;SDS011;447;51.332;6.778;2024-03-22T15:34:39;14.50;;;11.37;;
920;SDS011;447;51.332;6.778;2024-03-22T15:37:05;17.90;;;10.40;;
920;SDS011;447;51.332;6.778;2024-03-22T15:39:33;12.80;;;11.20;;